Time;durP1;ratioP1;P1;durP2;ratioP2;P2;SDS_P1;SDS_P2;PMS_P1;PMS_P2;Temp;Humidity;BMP_temperature;BMP_pressure;BME280_temperature;BME280_humidity;BME280_pressure;Samples;Min_cycle;Max_cycle;Signal;HPM_P1;HPM_P2
2021/01/18 00:02:01;;;;;;;1999.90;999.90;;;5.00;99.90;;;;;;5090425;28;20280;-67
2021/01/18 00:04:27;;;;;;;1999.90;999.90;;;5.00;99.90;;;;;;5091599;28;20174;-67
2021/01/18 00:06:52;;;;;;;1999.90;999.90;;;4.90;99.90;;;;;;5091484;28;20478;-67
2021/01/18 00:09:18;;;;;;;1999.90;999.90;;;4.90;99.90;;;;;;5091030;28;20201;-68
2021/01/18 00:11:46;;;;;;;1999.90;999.90;;;5.00;99.90;;;;;;5091340;28;20182;-68
2021/01/18 00:14:12;;;;;;;1999.90;999.90;;;5.00;99.90;;;;;;5092129;28;20258;-68
2021/01/18 00:16:38;;;;;;;1999.90;999.90;;;5.00;99.90;;;;;;5091432;28;20443;-68
2021/01/18 00:19:03;;;;;;;1999.90;999.90;;;5.00;99.90;;;;;;5091087;28;20201;-68
2021/01/18 00:21:29;;;;;;;1999.90;999.90;;;5.00;99.90;;;;;;5091207;28;20186;-68
2021/01/18 00:23:54;;;;;;;1999.90;999.90;;;5.00;99.90;;;;;;5091186;28;20166;-68
2021/01/18 00:26:20;;;;;;;1999.90;999.90;;;5.00;99.90;;;;;;5091175;28;20166;-68
2021/01/18 00:28:46;;;;;;;1999.90;999.90;;;5.00;99.90;;;;;;5090726;28;20538;-68
2021/01/18 00:31:12;;;;;;;1999.90;999.90;;;5.00;99.90;;;;;;5091222;28;20721;-68
2021/01/18 00:33:38;;;;;;;1999.90;999.90;;;4.90;99.90;;;;;;5091204;28;20159;-68
2021/01/18 00:36:05;;;;;;;1999.90;999.90;;;5.00;99.90;;;;;;5091053;28;20435;-68
2021/01/18 00:38:30;;;;;;;1999.90;999.90;;;5.00;99.90;;;;;;5090980;28;20224;-68
2021/01/18 00:40:57;;;;;;;1999.90;999.90;;;5.00;99.90;;;;;;5090950;28;20651;-68
2021/01/18 00:43:22;;;;;;;1999.90;999.90;;;4.90;99.90;;;;;;5091140;28;20639;-68
2021/01/18 00:45:48;;;;;;;1999.90;999.90;;;5.00;99.90;;;;;;5090970;28;20541;-68
2021/01/18 00:48:14;;;;;;;1999.90;999.90;;;5.00;99.90;;;;;;5090888;28;20190;-68
2021/01/18 00:50:39;;;;;;;1999.90;999.90;;;5.00;99.90;;;;;;5090954;28;20171;-68
2021/01/18 00:53:05;;;;;;;1999.90;999.90;;;5.00;99.90;;;;;;5090793;28;20561;-68
2021/01/18 00:55:31;;;;;;;1999.90;999.90;;;5.00;99.90;;;;;;5090848;28;20169;-68
2021/01/18 00:57:57;;;;;;;1999.90;999.90;;;4.90;99.90;;;;;;5090767;28;20393;-68
2021/01/18 01:00:28;;;;;;;1999.90;999.90;;;4.90;99.90;;;;;;5090547;28;20181;-68
2021/01/18 01:02:55;;;;;;;1999.90;999.90;;;4.90;99.90;;;;;;5090792;28;20706;-68
2021/01/18 01:05:27;;;;;;;1999.90;999.90;;;4.90;99.90;;;;;;5090911;28;20217;-68
2021/01/18 01:07:55;;;;;;;1999.90;999.90;;;4.80;99.90;;;;;;5090775;28;20517;-68
2021/01/18 01:10:26;;;;;;;1999.90;999.90;;;4.90;99.90;;;;;;5090322;28;20499;-68
2021/01/18 01:13:03;;;;;;;1999.90;999.90;;;4.90;99.90;;;;;;5092833;28;20190;-68
2021/01/18 01:15:30;;;;;;;1999.90;999.90;;;4.80;99.90;;;;;;5094659;28;20209;-68
2021/01/18 01:17:56;;;;;;;1999.90;999.90;;;4.80;99.90;;;;;;5094543;28;20408;-68
2021/01/18 01:20:23;;;;;;;1999.90;999.90;;;4.80;99.90;;;;;;5094268;28;20441;-68
2021/01/18 01:22:50;;;;;;;1999.90;999.90;;;4.80;99.90;;;;;;5094179;28;20513;-67
2021/01/18 01:25:17;;;;;;;1999.90;999.90;;;4.80;99.90;;;;;;5094508;28;20502;-67
2021/01/18 01:27:43;;;;;;;1999.90;999.90;;;4.80;99.90;;;;;;5094603;28;20769;-68
2021/01/18 01:30:14;;;;;;;1999.90;999.90;;;4.80;99.90;;;;;;5094080;28;20547;-68
2021/01/18 01:32:41;;;;;;;1999.90;999.90;;;4.90;99.90;;;;;;5094287;28;20482;-68
2021/01/18 01:35:09;;;;;;;1999.90;999.90;;;4.90;99.90;;;;;;5094041;28;20654;-68
2021/01/18 01:37:36;;;;;;;1999.90;999.90;;;4.90;99.90;;;;;;5093982;28;20419;-67
2021/01/18 01:40:06;;;;;;;1999.90;999.90;;;4.90;99.90;;;;;;5093818;28;20408;-67
2021/01/18 01:42:32;;;;;;;1999.90;999.90;;;4.90;99.90;;;;;;5093989;28;20517;-68
2021/01/18 01:44:57;;;;;;;1999.90;999.90;;;4.90;99.90;;;;;;5094255;28;20407;-68
2021/01/18 01:47:31;;;;;;;1999.90;999.90;;;4.90;99.90;;;;;;5093830;28;20175;-68
2021/01/18 01:49:58;;;;;;;1999.90;999.90;;;4.80;99.90;;;;;;5093657;28;20255;-67
2021/01/18 01:52:25;;;;;;;1999.90;999.90;;;4.80;99.90;;;;;;5093850;28;20239;-67
2021/01/18 01:55:02;;;;;;;1999.90;999.90;;;4.80;99.90;;;;;;5094140;28;20810;-67
2021/01/18 01:57:33;;;;;;;1999.90;999.90;;;4.80;99.90;;;;;;5093835;28;20170;-67
2021/01/18 01:59:59;;;;;;;1999.90;999.90;;;4.80;99.90;;;;;;5093441;28;20397;-67
2021/01/18 02:02:25;;;;;;;1999.90;999.90;;;4.80;99.90;;;;;;5093479;28;20447;-68
2021/01/18 02:04:51;;;;;;;1999.90;999.90;;;4.70;99.90;;;;;;5093364;28;20953;-67
2021/01/18 02:07:25;;;;;;;1999.90;999.90;;;4.70;99.90;;;;;;5093545;28;20417;-67
2021/01/18 02:09:51;;;;;;;1999.90;999.90;;;4.70;99.90;;;;;;5093173;28;20210;-67
2021/01/18 02:12:17;;;;;;;1999.90;999.90;;;4.70;99.90;;;;;;5093293;28;20542;-67
2021/01/18 02:15:08;;;;;;;1999.90;999.90;;;4.80;99.90;;;;;;5094864;28;20397;-68
2021/01/18 02:17:58;;;;;;;1999.90;999.90;;;4.70;99.90;;;;;;5095365;28;20189;-67
2021/01/18 02:20:32;;;;;;;1999.90;999.90;;;4.60;99.90;;;;;;5094699;28;20253;-69
2021/01/18 02:23:36;;;;;;;1999.90;999.90;;;4.60;99.90;;;;;;5094467;28;20416;-67
2021/01/18 02:26:14;;;;;;;1999.90;999.90;;;4.60;99.90;;;;;;5072625;28;20182;-68
2021/01/18 02:28:52;;;;;;;1999.90;999.90;;;4.60;99.90;;;;;;5094087;28;20620;-68
2021/01/18 02:31:29;;;;;;;1999.90;999.90;;;4.60;99.90;;;;;;5094834;28;20192;-69
2021/01/18 02:34:16;;;;;;;1999.90;999.90;;;4.70;99.90;;;;;;5094339;28;20429;-68
2021/01/18 02:37:03;;;;;;;1999.90;999.90;;;4.70;99.90;;;;;;5093875;28;20799;-67
2021/01/18 02:39:54;;;;;;;1999.90;999.90;;;4.70;99.90;;;;;;5093849;28;20399;-69
2021/01/18 02:42:26;;;;;;;1999.90;999.90;;;4.80;99.90;;;;;;5093972;28;20471;-69
2021/01/18 02:44:57;;;;;;;1999.90;999.90;;;4.80;99.90;;;;;;5094345;28;20197;-68
2021/01/18 02:47:24;;;;;;;1999.90;999.90;;;4.80;99.90;;;;;;5094025;28;20190;-68
2021/01/18 02:49:52;;;;;;;1999.90;999.90;;;4.80;99.90;;;;;;5093551;28;20221;-67
2021/01/18 02:52:18;;;;;;;1999.90;999.90;;;4.80;99.90;;;;;;5093563;28;20424;-68
2021/01/18 02:54:43;;;;;;;1999.90;999.90;;;4.80;99.90;;;;;;5093720;28;20170;-68
2021/01/18 02:57:14;;;;;;;1999.90;999.90;;;4.80;99.90;;;;;;5093811;28;20540;-67
2021/01/18 02:59:42;;;;;;;1999.90;999.90;;;4.80;99.90;;;;;;5093252;28;20178;-69
2021/01/18 03:02:33;;;;;;;1999.90;999.90;;;4.80;99.90;;;;;;5093479;28;20416;-69
2021/01/18 03:05:24;;;;;;;1999.90;999.90;;;4.70;99.90;;;;;;5093685;28;20401;-68
2021/01/18 03:08:22;;;;;;;1999.90;999.90;;;4.70;99.90;;;;;;5093662;28;20482;-68
2021/01/18 03:11:03;;;;;;;1999.90;999.90;;;4.60;99.90;;;;;;5091459;28;20170;-68
2021/01/18 03:13:33;;;;;;;1999.90;999.90;;;4.60;99.90;;;;;;5093741;28;20173;-67
2021/01/18 03:16:08;;;;;;;1999.90;999.90;;;4.60;99.90;;;;;;5093015;28;20193;-66
2021/01/18 03:18:34;;;;;;;1999.90;999.90;;;4.70;99.90;;;;;;5093062;28;20182;-68
2021/01/18 03:21:01;;;;;;;1999.90;999.90;;;4.70;99.90;;;;;;5092930;28;20201;-69
2021/01/18 03:23:26;;;;;;;1999.90;999.90;;;4.70;99.90;;;;;;5093819;28;20185;-69
2021/01/18 03:25:54;;;;;;;1999.90;999.90;;;4.70;99.90;;;;;;5093126;28;20170;-69
2021/01/18 03:28:22;;;;;;;1999.90;999.90;;;4.60;99.90;;;;;;5092629;28;20186;-69
2021/01/18 03:30:48;;;;;;;1999.90;999.90;;;4.60;99.90;;;;;;5093172;28;20487;-68
2021/01/18 03:33:15;;;;;;;1999.90;999.90;;;4.50;99.90;;;;;;5092256;28;20404;-67
2021/01/18 03:35:40;;;;;;;1999.90;999.90;;;4.50;99.90;;;;;;5091417;28;20166;-67
2021/01/18 03:38:07;;;;;;;1999.90;999.90;;;4.60;99.90;;;;;;5091524;28;20538;-67
2021/01/18 03:40:33;;;;;;;1999.90;999.90;;;4.50;99.90;;;;;;5091562;28;20432;-67
2021/01/18 03:43:00;;;;;;;1999.90;999.90;;;4.40;99.90;;;;;;5090747;28;20846;-67
2021/01/18 03:45:28;;;;;;;1999.90;999.90;;;4.40;99.90;;;;;;5090777;28;20427;-67
2021/01/18 03:47:54;;;;;;;1999.90;999.90;;;4.30;99.90;;;;;;5090696;28;20404;-67
2021/01/18 03:50:20;;;;;;;1999.90;999.90;;;4.30;99.90;;;;;;5090416;28;20392;-67
2021/01/18 03:52:47;;;;;;;1999.90;999.90;;;4.40;99.90;;;;;;5090559;28;20591;-68
2021/01/18 03:55:13;;;;;;;1999.90;999.90;;;4.40;99.90;;;;;;5090808;28;20170;-68
2021/01/18 03:57:39;;;;;;;1999.90;999.90;;;4.40;99.90;;;;;;5090748;28;20171;-68
2021/01/18 04:00:06;;;;;;;1999.90;999.90;;;4.40;99.90;;;;;;5090308;28;20166;-68
2021/01/18 04:02:32;;;;;;;1999.90;999.90;;;4.40;99.90;;;;;;5090330;28;20457;-68
2021/01/18 04:04:58;;;;;;;1999.90;999.90;;;4.40;99.90;;;;;;5090454;28;20815;-67
2021/01/18 04:07:23;;;;;;;1999.90;999.90;;;4.50;99.90;;;;;;5090386;28;20174;-68
2021/01/18 04:09:49;;;;;;;1999.90;999.90;;;4.50;99.90;;;;;;5090106;28;20190;-67
2021/01/18 04:12:15;;;;;;;1999.90;999.90;;;4.60;99.90;;;;;;5090333;28;20190;-67
2021/01/18 04:14:40;;;;;;;1999.90;999.90;;;4.60;99.90;;;;;;5090379;28;20158;-67
2021/01/18 04:17:07;;;;;;;1999.90;999.90;;;4.60;99.90;;;;;;5090421;28;20623;-67
2021/01/18 04:19:33;;;;;;;1999.90;999.90;;;4.60;99.90;;;;;;5090043;28;20183;-68
2021/01/18 04:21:58;;;;;;;1999.90;999.90;;;4.70;99.90;;;;;;5090217;28;20198;-67
2021/01/18 04:24:24;;;;;;;1999.90;999.90;;;4.60;99.90;;;;;;5090243;28;20174;-67
2021/01/18 04:26:49;;;;;;;1999.90;999.90;;;4.70;99.90;;;;;;5090263;28;20166;-67
2021/01/18 04:29:15;;;;;;;1999.90;999.90;;;4.70;99.90;;;;;;5089861;28;20265;-67
2021/01/18 04:31:42;;;;;;;1999.90;999.90;;;4.60;99.90;;;;;;5091513;28;20247;-69
2021/01/18 04:34:08;;;;;;;1999.90;999.90;;;4.60;99.90;;;;;;5091484;28;20404;-69
2021/01/18 04:36:38;;;;;;;1999.90;999.90;;;4.50;99.90;;;;;;5091209;28;20418;-68
2021/01/18 04:39:06;;;;;;;1999.90;999.90;;;4.40;99.90;;;;;;5091272;28;20456;-69
2021/01/18 04:41:34;;;;;;;1999.90;999.90;;;4.50;99.90;;;;;;5083687;22;604946;-62
2021/01/18 04:44:00;;;;;;;1999.90;999.90;;;4.40;99.90;;;;;;5091584;28;20213;-62
2021/01/18 04:46:30;;;;;;;1999.90;999.90;;;4.40;99.90;;;;;;5091382;28;20554;-62
2021/01/18 04:48:59;;;;;;;1999.90;999.90;;;4.50;99.90;;;;;;5095528;28;20190;-62
2021/01/18 04:51:24;;;;;;;1999.90;999.90;;;4.50;99.90;;;;;;5095567;28;20499;-63
2021/01/18 04:53:53;;;;;;;1999.90;999.90;;;4.50;99.90;;;;;;5095908;28;20601;-62
2021/01/18 04:56:48;;;;;;;1999.90;999.90;;;4.50;99.90;;;;;;5095916;28;20815;-62
2021/01/18 04:59:20;;;;;;;1999.90;999.90;;;4.60;99.90;;;;;;5095427;28;20166;-62
2021/01/18 05:01:46;;;;;;;1999.90;999.90;;;4.60;99.90;;;;;;5098295;28;20190;-62
2021/01/18 05:04:27;;;;;;;1999.90;999.90;;;4.60;99.90;;;;;;5098287;28;20170;-62
2021/01/18 05:06:59;;;;;;;1999.90;999.90;;;4.60;99.90;;;;;;5098416;28;20170;-63
2021/01/18 05:09:28;;;;;;;1999.90;999.90;;;4.70;99.90;;;;;;5098717;28;20202;-62
2021/01/18 05:11:55;;;;;;;1999.90;999.90;;;4.70;99.90;;;;;;5098984;28;20818;-62
2021/01/18 05:14:20;;;;;;;1999.90;999.90;;;4.70;99.90;;;;;;5099140;28;20174;-62
2021/01/18 05:16:57;;;;;;;1999.90;999.90;;;4.70;99.90;;;;;;5099573;28;20687;-62
2021/01/18 05:19:24;;;;;;;1999.90;999.90;;;4.70;99.90;;;;;;5099530;28;20162;-62
2021/01/18 05:21:50;;;;;;;1999.90;999.90;;;4.80;99.90;;;;;;5097372;28;20547;-62
2021/01/18 05:24:21;;;;;;;1999.90;999.90;;;4.70;99.90;;;;;;5096604;28;20175;-63
2021/01/18 05:27:04;;;;;;;1999.90;999.90;;;4.80;99.90;;;;;;5095824;28;20400;-62
2021/01/18 05:29:31;;;;;;;1999.90;999.90;;;4.70;99.90;;;;;;5097649;28;20447;-62
2021/01/18 05:31:57;;;;;;;1999.90;999.90;;;4.70;99.90;;;;;;5098038;28;20416;-62
2021/01/18 05:34:27;;;;;;;1999.90;999.90;;;4.70;99.90;;;;;;5105238;28;20216;-62
2021/01/18 05:36:52;;;;;;;1999.90;999.90;;;4.70;99.90;;;;;;5106325;28;20163;-62
2021/01/18 05:39:19;;;;;;;1999.90;999.90;;;4.70;99.90;;;;;;5105624;28;20280;-62
2021/01/18 05:41:50;;;;;;;1999.90;999.90;;;4.70;99.90;;;;;;5105158;28;20240;-62
2021/01/18 05:44:17;;;;;;;1999.90;999.90;;;4.70;99.90;;;;;;5103251;28;20162;-62
2021/01/18 05:46:44;;;;;;;1999.90;999.90;;;4.70;99.90;;;;;;5102465;28;20253;-62
2021/01/18 05:49:12;;;;;;;1999.90;999.90;;;4.70;99.90;;;;;;5103174;28;20450;-62
2021/01/18 05:51:38;;;;;;;1999.90;999.90;;;4.60;99.90;;;;;;5102370;28;20273;-62
2021/01/18 05:54:05;;;;;;;1999.90;999.90;;;4.60;99.90;;;;;;5104464;28;20192;-62
2021/01/18 05:56:41;;;;;;;1999.90;999.90;;;4.60;99.90;;;;;;5106136;28;20966;-62
2021/01/18 05:59:19;;;;;;;1999.90;999.90;;;4.60;99.90;;;;;;5095167;28;20181;-62
2021/01/18 06:01:46;;;;;;;1999.90;999.90;;;4.60;99.90;;;;;;5094930;28;20190;-62
2021/01/18 06:04:14;;;;;;;1999.90;999.90;;;4.70;99.90;;;;;;5094521;28;20174;-62
2021/01/18 06:06:41;;;;;;;1999.90;999.90;;;4.70;99.90;;;;;;5095096;28;20711;-62
2021/01/18 06:09:07;;;;;;;1999.90;999.90;;;4.70;99.90;;;;;;5093744;28;21215;-62
2021/01/18 06:11:33;;;;;;;1999.90;999.90;;;4.70;99.90;;;;;;5096168;28;20416;-62
2021/01/18 06:14:00;;;;;;;1999.90;999.90;;;4.70;99.90;;;;;;5098214;28;20256;-62
2021/01/18 06:16:27;;;;;;;1999.90;999.90;;;4.70;99.90;;;;;;5098692;28;20166;-62
2021/01/18 06:19:04;;;;;;;1999.90;999.90;;;4.70;99.90;;;;;;5095830;28;20182;-62
2021/01/18 06:21:42;;;;;;;1999.90;999.90;;;4.70;99.90;;;;;;5095142;28;20265;-62
2021/01/18 06:24:21;;;;;;;1999.90;999.90;;;4.70;99.90;;;;;;5105205;28;20528;-62
2021/01/18 06:26:47;;;;;;;1999.90;999.90;;;4.70;99.90;;;;;;5095437;28;20166;-62
2021/01/18 06:29:43;;;;;;;1999.90;999.90;;;4.70;99.90;;;;;;5093022;28;20247;-63
2021/01/18 06:32:13;;;;;;;1999.90;999.90;;;4.70;99.90;;;;;;5084551;28;20440;-63
2021/01/18 06:34:38;;;;;;;1999.90;999.90;;;4.60;99.90;;;;;;5093821;28;20159;-63
2021/01/18 06:37:19;;;;;;;1999.90;999.90;;;4.60;99.90;;;;;;5093495;28;20408;-63
2021/01/18 06:39:46;;;;;;;1999.90;999.90;;;4.70;99.90;;;;;;5093306;28;20180;-63
2021/01/18 06:42:21;;;;;;;1999.90;999.90;;;4.60;99.90;;;;;;5093027;28;20222;-63
2021/01/18 06:44:47;;;;;;;1999.90;999.90;;;4.70;99.90;;;;;;5093255;28;20565;-63
2021/01/18 06:47:29;;;;;;;1999.90;999.90;;;4.70;99.90;;;;;;5092958;28;20170;-63
2021/01/18 06:50:01;;;;;;;1999.90;999.90;;;4.70;99.90;;;;;;5092581;28;20230;-63
2021/01/18 06:52:32;;;;;;;1999.90;999.90;;;4.70;99.90;;;;;;5092911;28;20229;-63
2021/01/18 06:55:02;;;;;;;1999.90;999.90;;;4.70;99.90;;;;;;5093037;28;20167;-63
2021/01/18 06:57:45;;;;;;;1999.90;999.90;;;4.70;99.90;;;;;;5092600;28;20166;-63
2021/01/18 07:00:16;;;;;;;1999.90;999.90;;;4.80;99.90;;;;;;5092590;28;20257;-63
2021/01/18 07:03:18;;;;;;;1999.90;999.90;;;4.80;99.90;;;;;;5092655;28;20190;-63
2021/01/18 07:05:53;;;;;;;1999.90;999.90;;;4.80;99.90;;;;;;5093105;28;20198;-63
2021/01/18 07:08:21;;;;;;;1999.90;999.90;;;4.80;99.90;;;;;;5093385;28;20197;-63
2021/01/18 07:10:52;;;;;;;1999.90;999.90;;;4.80;99.90;;;;;;5101967;28;20163;-63
2021/01/18 07:13:19;;;;;;;1999.90;999.90;;;4.80;99.90;;;;;;5103599;28;20250;-62
2021/01/18 07:15:48;;;;;;;1999.90;999.90;;;4.70;99.90;;;;;;5103776;28;20606;-63
2021/01/18 07:18:14;;;;;;;1999.90;999.90;;;4.70;99.90;;;;;;5103681;28;20628;-63
2021/01/18 07:20:47;;;;;;;1999.90;999.90;;;4.70;99.90;;;;;;5098898;28;20219;-63
2021/01/18 07:23:27;;;;;;;1999.90;999.90;;;4.70;99.90;;;;;;5092875;28;20193;-63
2021/01/18 07:26:53;;;;;;;1999.90;999.90;;;4.70;99.90;;;;;;5092464;28;20173;-63
2021/01/18 07:29:21;;;;;;;1999.90;999.90;;;4.70;99.90;;;;;;5060427;28;20199;-62
2021/01/18 07:31:53;;;;;;;1999.90;999.90;;;4.80;99.90;;;;;;5085650;28;20421;-63
2021/01/18 07:34:24;;;;;;;1999.90;999.90;;;4.70;99.90;;;;;;5102815;28;20159;-63
2021/01/18 07:36:51;;;;;;;1999.90;999.90;;;4.70;99.90;;;;;;5092163;28;20178;-63
2021/01/18 07:39:30;;;;;;;1999.90;999.90;;;4.70;99.90;;;;;;5091711;28;20491;-63
2021/01/18 07:41:56;;;;;;;1999.90;999.90;;;4.60;99.90;;;;;;5091707;28;20204;-63
2021/01/18 07:44:35;;;;;;;1999.90;999.90;;;4.70;99.90;;;;;;5091860;28;20738;-63
2021/01/18 07:47:07;;;;;;;1999.90;999.90;;;4.70;99.90;;;;;;5102314;28;20184;-63
2021/01/18 07:49:35;;;;;;;1999.90;999.90;;;4.80;99.90;;;;;;5103002;28;20894;-63
2021/01/18 07:52:15;;;;;;;1999.90;999.90;;;4.80;99.90;;;;;;5103190;28;20193;-62
2021/01/18 07:54:40;;;;;;;1999.90;999.90;;;4.80;99.90;;;;;;5103560;28;20614;-63
2021/01/18 07:57:27;;;;;;;1999.90;999.90;;;4.80;99.90;;;;;;5103561;28;20201;-63
2021/01/18 08:00:18;;;;;;;1999.90;999.90;;;4.80;99.90;;;;;;5102924;28;20182;-63
2021/01/18 08:02:53;;;;;;;1999.90;999.90;;;4.80;99.90;;;;;;5101906;28;20194;-63
2021/01/18 08:05:19;;;;;;;1999.90;999.90;;;4.90;99.90;;;;;;5085600;28;20165;-63
2021/01/18 08:08:07;;;;;;;1999.90;999.90;;;4.90;99.90;;;;;;5104031;28;20832;-63
2021/01/18 08:10:54;;;;;;;1999.90;999.90;;;5.00;99.90;;;;;;5103871;28;20495;-63
2021/01/18 08:13:42;;;;;;;1999.90;999.90;;;5.10;99.90;;;;;;5103351;28;20186;-63
2021/01/18 08:16:14;;;;;;;1999.90;999.90;;;5.10;99.90;;;;;;5104211;28;20487;-63
2021/01/18 08:18:59;;;;;;;1999.90;999.90;;;5.10;99.90;;;;;;5103585;28;20411;-63
2021/01/18 08:21:33;;;;;;;1999.90;999.90;;;5.10;99.90;;;;;;5101488;28;20174;-63
2021/01/18 08:24:04;;;;;;;1999.90;999.90;;;5.20;99.90;;;;;;5102339;28;20170;-63
2021/01/18 08:26:49;;;;;;;1999.90;999.90;;;5.20;99.90;;;;;;5103319;28;20423;-63
2021/01/18 08:29:34;;;;;;;1999.90;999.90;;;5.20;99.90;;;;;;5103692;28;20249;-63
2021/01/18 08:32:22;;;;;;;1999.90;999.90;;;5.30;99.90;;;;;;5102896;28;20507;-63
2021/01/18 08:34:51;;;;;;;1999.90;999.90;;;5.30;99.90;;;;;;5102709;28;20403;-63
2021/01/18 08:37:16;;;;;;;1999.90;999.90;;;5.30;99.90;;;;;;5103198;28;20446;-63
2021/01/18 08:39:51;;;;;;;1999.90;999.90;;;5.40;99.90;;;;;;5098482;28;20518;-63
2021/01/18 08:42:38;;;;;;;1999.90;999.90;;;5.30;99.90;;;;;;5092035;28;20468;-63
2021/01/18 08:45:29;;;;;;;1999.90;999.90;;;5.40;99.90;;;;;;5092596;28;20408;-63
2021/01/18 08:47:58;;;;;;;1999.90;999.90;;;5.50;99.90;;;;;;5072860;28;20416;-63
2021/01/18 08:50:37;;;;;;;1999.90;999.90;;;5.40;99.90;;;;;;5092826;28;20196;-63
2021/01/18 08:53:32;;;;;;;1999.90;999.90;;;5.50;99.90;;;;;;5093993;28;20460;-63
2021/01/18 08:56:01;;;;;;;1999.90;999.90;;;5.50;99.90;;;;;;5094097;28;20198;-63
2021/01/18 08:58:37;;;;;;;1999.90;999.90;;;5.50;99.90;;;;;;5093899;28;20166;-63
2021/01/18 09:01:30;;;;;;;1999.90;999.90;;;5.50;99.90;;;;;;5093536;28;20486;-63
2021/01/18 09:04:05;;;;;;;1999.90;999.90;;;5.50;99.90;;;;;;5093288;28;20951;-63
2021/01/18 09:06:30;;;;;;;1999.90;999.90;;;5.50;99.90;;;;;;5094282;28;20192;-63
2021/01/18 09:09:07;;;;;;;1999.90;999.90;;;5.60;99.90;;;;;;5092959;28;20448;-63
2021/01/18 09:11:33;;;;;;;1999.90;999.90;;;5.60;99.90;;;;;;5093267;28;20217;-63
2021/01/18 09:14:00;;;;;;;1999.90;999.90;;;5.60;99.90;;;;;;5093864;28;20662;-63
2021/01/18 09:16:26;;;;;;;1999.90;999.90;;;5.60;99.90;;;;;;5093839;28;20177;-63
2021/01/18 09:18:51;;;;;;;1999.90;999.90;;;5.60;99.90;;;;;;5092108;28;20415;-63
2021/01/18 09:21:18;;;;;;;1999.90;999.90;;;5.50;99.90;;;;;;5092217;28;20228;-63
2021/01/18 09:23:45;;;;;;;1999.90;999.90;;;5.50;99.90;;;;;;5092756;28;20443;-63
2021/01/18 09:26:13;;;;;;;1999.90;999.90;;;5.60;99.90;;;;;;5092697;28;20571;-63
2021/01/18 09:28:54;;;;;;;1999.90;999.90;;;5.50;99.90;;;;;;5091905;28;20575;-63
2021/01/18 09:31:21;;;;;;;1999.90;999.90;;;5.50;99.90;;;;;;5092038;28;20453;-63
2021/01/18 09:33:47;;;;;;;1999.90;999.90;;;5.60;99.90;;;;;;5097339;28;20170;-63
2021/01/18 09:36:17;;;;;;;1999.90;999.90;;;5.50;99.90;;;;;;5104219;28;20408;-63
2021/01/18 09:38:45;;;;;;;1999.90;999.90;;;5.60;99.90;;;;;;5105094;28;20404;-63
2021/01/18 09:41:14;;;;;;;1999.90;999.90;;;5.60;99.90;;;;;;5103102;28;20768;-63
2021/01/18 09:43:42;;;;;;;1999.90;999.90;;;5.50;99.90;;;;;;5096863;28;20190;-63
2021/01/18 09:46:08;;;;;;;1999.90;999.90;;;5.50;99.90;;;;;;5092321;28;20230;-63
2021/01/18 09:48:34;;;;;;;1999.90;999.90;;;5.50;99.90;;;;;;5095647;28;20271;-63
2021/01/18 09:51:04;;;;;;;1999.90;999.90;;;5.60;99.90;;;;;;5096820;28;20401;-63
2021/01/18 09:53:31;;;;;;;1999.90;999.90;;;5.60;99.90;;;;;;5095697;28;20271;-63
2021/01/18 09:56:03;;;;;;;1999.90;999.90;;;5.60;99.90;;;;;;5096581;28;20430;-63
2021/01/18 09:58:41;;;;;;;1999.90;999.90;;;5.70;99.90;;;;;;5095176;28;20404;-63
2021/01/18 10:01:18;;;;;;;1999.90;999.90;;;5.70;99.90;;;;;;5095730;28;20174;-63
2021/01/18 10:03:58;;;;;;;1999.90;999.90;;;5.80;99.90;;;;;;5095949;28;20449;-63
2021/01/18 10:06:27;;;;;;;1999.90;999.90;;;5.80;99.90;;;;;;5081868;28;20433;-65
2021/01/18 10:09:02;;;;;;;1999.90;999.90;;;5.80;99.90;;;;;;5070451;28;20463;-65
2021/01/18 10:11:50;;;;;;;1999.90;999.90;;;5.80;99.90;;;;;;5070942;28;20400;-65
2021/01/18 10:14:19;;;;;;;1999.90;999.90;;;5.80;99.90;;;;;;5071223;28;20450;-64
2021/01/18 10:17:00;;;;;;;1999.90;999.90;;;5.90;99.90;;;;;;5071787;28;20393;-63
2021/01/18 10:19:29;;;;;;;1999.90;999.90;;;5.90;99.90;;;;;;5073923;28;20420;-64
2021/01/18 10:21:55;;;;;;;1999.90;999.90;;;5.80;99.90;;;;;;5072095;28;20970;-63
2021/01/18 10:24:39;;;;;;;1999.90;999.90;;;5.90;99.90;;;;;;5071934;28;20417;-65
2021/01/18 10:27:06;;;;;;;1999.90;999.90;;;5.90;99.90;;;;;;5070585;28;20909;-65
2021/01/18 10:29:31;;;;;;;1999.90;999.90;;;5.90;99.90;;;;;;5070257;28;20472;-66
2021/01/18 10:31:57;;;;;;;1999.90;999.90;;;6.00;99.90;;;;;;5071124;28;20425;-65
2021/01/18 10:34:23;;;;;;;1999.90;999.90;;;6.00;99.90;;;;;;5074731;28;20534;-63
2021/01/18 10:36:54;;;;;;;1999.90;999.90;;;6.10;99.90;;;;;;5073713;28;20397;-63
2021/01/18 10:39:40;;;;;;;1999.90;999.90;;;6.00;99.90;;;;;;5074028;28;20578;-63
2021/01/18 10:42:12;;;;;;;1999.90;999.90;;;6.00;99.90;;;;;;5074664;28;20471;-63
2021/01/18 10:44:46;;;;;;;1999.90;999.90;;;6.00;99.90;;;;;;5070918;28;20405;-64
2021/01/18 10:47:12;;;;;;;1999.90;999.90;;;6.00;99.90;;;;;;5070583;28;20496;-65
2021/01/18 10:49:38;;;;;;;1999.90;999.90;;;6.10;99.90;;;;;;5070154;28;20875;-64
2021/01/18 10:52:11;;;;;;;1999.90;999.90;;;6.20;99.90;;;;;;5070134;28;20456;-63
2021/01/18 10:54:38;;;;;;;1999.90;999.90;;;6.40;99.90;;;;;;5070734;28;20609;-63
2021/01/18 10:57:19;;;;;;;1999.90;999.90;;;6.60;99.90;;;;;;5070844;28;20419;-63
2021/01/18 10:59:45;;;;;;;1999.90;999.90;;;6.70;99.90;;;;;;5069949;28;20421;-63
2021/01/18 11:02:14;;;;;;;1999.90;999.90;;;6.80;99.90;;;;;;5070824;28;20521;-63
2021/01/18 11:04:46;;;;;;;1999.90;999.90;;;6.80;99.90;;;;;;5070926;28;20174;-63
2021/01/18 11:07:13;;;;;;;1999.90;999.90;;;6.90;99.90;;;;;;5070307;28;20480;-63
2021/01/18 11:09:40;;;;;;;1999.90;999.90;;;6.90;99.90;;;;;;5070163;28;20460;-63
2021/01/18 11:12:06;;;;;;;1999.90;999.90;;;6.90;99.90;;;;;;5070734;28;20426;-63
2021/01/18 11:14:33;;;;;;;1999.90;999.90;;;6.90;99.90;;;;;;5070074;28;20474;-63
2021/01/18 11:17:06;;;;;;;1999.90;999.90;;;6.90;99.90;;;;;;5070701;28;20437;-62
2021/01/18 11:19:32;;;;;;;1999.90;999.90;;;6.90;99.90;;;;;;5070238;28;20408;-62
2021/01/18 11:21:58;;;;;;;1999.90;999.90;;;6.80;99.90;;;;;;5069984;28;20918;-62
2021/01/18 11:24:23;;;;;;;1999.90;999.90;;;6.90;99.90;;;;;;5070491;28;20489;-63
2021/01/18 11:26:50;;;;;;;1999.90;999.90;;;6.80;99.90;;;;;;5069759;28;20221;-64
2021/01/18 11:29:16;;;;;;;1999.90;999.90;;;6.90;99.90;;;;;;5069180;28;20191;-70
2021/01/18 11:31:43;;;;;;;1999.90;999.90;;;7.10;99.90;;;;;;5070358;28;20414;-63
2021/01/18 11:34:09;;;;;;;1999.90;999.90;;;7.30;99.90;;;;;;5070138;28;20488;-64
2021/01/18 11:36:34;;;;;;;1999.90;999.90;;;7.20;99.90;;;;;;5069991;28;20461;-64
2021/01/18 11:39:00;;;;;;;1999.90;999.90;;;7.20;99.90;;;;;;5070169;28;20163;-63
2021/01/18 11:41:26;;;;;;;1999.90;999.90;;;7.30;99.90;;;;;;5070321;28;20246;-64
2021/01/18 11:43:52;;;;;;;1999.90;999.90;;;7.30;99.90;;;;;;5069527;28;20170;-63
2021/01/18 11:46:18;;;;;;;1999.90;999.90;;;7.30;99.90;;;;;;5069521;28;20167;-64
2021/01/18 11:48:44;;;;;;;1999.90;999.90;;;7.30;99.90;;;;;;5069300;28;20456;-63
2021/01/18 11:51:10;;;;;;;1999.90;999.90;;;7.20;99.90;;;;;;5069444;28;20393;-65
2021/01/18 11:53:36;;;;;;;1999.90;999.90;;;7.30;99.90;;;;;;5069868;28;20957;-63
2021/01/18 11:56:02;;;;;;;1999.90;999.90;;;7.30;99.90;;;;;;5070282;28;20488;-64
2021/01/18 11:58:27;;;;;;;1999.90;999.90;;;7.30;99.90;;;;;;5069081;28;20191;-64
2021/01/18 12:00:53;;;;;;;1999.90;999.90;;;7.40;99.90;;;;;;5070320;28;20312;-64
2021/01/18 12:03:19;;;;;;;1999.90;999.90;;;7.50;99.90;;;;;;5070586;28;20217;-64
2021/01/18 12:05:45;;;;;;;1999.90;999.90;;;7.60;99.90;;;;;;5070160;28;20393;-64
2021/01/18 12:08:10;;;;;;;1999.90;999.90;;;7.80;99.90;;;;;;5069539;28;20179;-64
2021/01/18 12:10:36;;;;;;;1999.90;999.90;;;8.10;99.90;;;;;;5069750;28;20507;-63
2021/01/18 12:13:03;;;;;;;1999.90;999.90;;;8.20;99.90;;;;;;5069580;28;20273;-63
2021/01/18 12:15:29;;;;;;;1999.90;999.90;;;8.30;99.90;;;;;;5070414;28;20175;-63
2021/01/18 12:17:55;;;;;;;1999.90;999.90;;;8.70;99.90;;;;;;5069302;28;20412;-63
2021/01/18 12:20:21;;;;;;;1999.90;999.90;;;9.00;99.90;;;;;;5068390;28;20397;-63
2021/01/18 12:22:47;;;;;;;1999.90;999.90;;;9.10;99.90;;;;;;5069106;28;20607;-63
2021/01/18 12:25:13;;;;;;;1999.90;999.90;;;9.10;99.90;;;;;;5068960;28;20245;-63
2021/01/18 12:27:39;;;;;;;1999.90;999.90;;;8.80;99.90;;;;;;5068676;28;20433;-63